TGPY/GND METAR and TAF weather

Enter ICAO airport designator
Station Type Date Time Source
TGPY METAR 2021/07/28 20:00 UTC NOAA

TGPY 282000Z 09007KT 9999 BKN018 27/24 Q1012 NOSIG RMK ADJ SHRA-WSW


Station Type Date Time Source
TGPY Decoded METAR 2021/07/28 20:00 UTC NOAA

Point Salines Airport, Grenada (TGPY) 12-00N 061-47W 7M
Jul 28, 2021 - 04:00 PM EDT / 2021.07.28 2000 UTC
Wind: from the E (090 degrees) at 8 MPH (7 KT):0
Visibility: greater than 7 mile(s):0
Sky conditions: mostly cloudy
Temperature: 80 F (27 C)
Dew Point: 75 F (24 C)
Relative Humidity: 83%
Pressure (altimeter): 29.88 in. Hg (1012 hPa)
ob: TGPY 282000Z 09007KT 9999 BKN018 27/24 Q1012 NOSIG RMK ADJ SHRA-WSW
cycle: 20

Station Type Date Time Source
TGPY TAF 2021/07/28 18:33 UTC NOAA

TAF TAF TGPY 281600Z 2818/2918 11018KT 9000 SHRA FEW015CB SCT018 SCT036
TEMPO 2900/2910 5000 SHRA TS FEW013CB BKN016 BKN032

Example: see airport list